Time;durP1;ratioP1;P1;durP2;ratioP2;P2;SDS_P1;SDS_P2;PMS_P1;PMS_P2;Temp;Humidity;BMP_temperature;BMP_pressure;BME280_temperature;BME280_humidity;BME280_pressure;Samples;Min_cycle;Max_cycle;Signal;HPM_P1;HPM_P2
2022/03/03 00:00:58;;;;;;;17.15;7.30;;;-2.20;75.30;;;;;;4187353;28;20090;-72
2022/03/03 00:03:19;;;;;;;17.63;6.35;;;-2.20;75.30;;;;;;4184540;28;20093;-73
2022/03/03 00:05:40;;;;;;;17.63;5.75;;;-2.20;75.50;;;;;;4188690;28;20036;-72
2022/03/03 00:08:01;;;;;;;21.35;5.78;;;-2.20;75.50;;;;;;4167848;28;20112;-72
2022/03/03 00:10:21;;;;;;;17.10;5.30;;;-2.20;75.50;;;;;;4179488;28;20486;-72
2022/03/03 00:12:42;;;;;;;18.88;5.43;;;-2.20;75.60;;;;;;4183662;28;20054;-73
2022/03/03 00:15:04;;;;;;;21.92;5.32;;;-2.20;75.60;;;;;;4175271;28;20096;-72
2022/03/03 00:17:25;;;;;;;13.80;6.13;;;-2.30;75.60;;;;;;4182636;28;20032;-72
2022/03/03 00:19:46;;;;;;;20.73;5.30;;;-2.30;75.60;;;;;;4178821;28;20044;-72
2022/03/03 00:22:07;;;;;;;15.88;4.97;;;-2.30;75.70;;;;;;4182055;28;20059;-73
2022/03/03 00:24:28;;;;;;;18.17;5.32;;;-2.30;75.70;;;;;;4182611;28;20570;-72
2022/03/03 00:26:48;;;;;;;14.32;5.00;;;-2.30;76.40;;;;;;4184508;28;20043;-72
2022/03/03 00:29:09;;;;;;;18.65;6.00;;;-2.30;75.60;;;;;;4183924;28;20028;-72
2022/03/03 00:31:30;;;;;;;37.30;11.07;;;-2.30;75.60;;;;;;4184980;28;20035;-72
2022/03/03 00:33:51;;;;;;;52.78;17.15;;;-2.30;75.60;;;;;;4185306;28;20436;-72
2022/03/03 00:36:12;;;;;;;35.63;10.13;;;-2.30;75.60;;;;;;4184437;28;20040;-72
2022/03/03 00:38:33;;;;;;;30.80;8.88;;;-2.30;75.60;;;;;;4184968;28;20075;-72
2022/03/03 00:40:54;;;;;;;26.20;9.05;;;-2.30;75.60;;;;;;4181833;28;20053;-72
2022/03/03 00:43:15;;;;;;;32.50;9.98;;;-2.30;75.70;;;;;;4184261;28;20025;-72
2022/03/03 00:45:36;;;;;;;25.70;8.38;;;-2.40;75.70;;;;;;4184803;28;20474;-72
2022/03/03 00:47:57;;;;;;;32.05;8.60;;;-2.40;75.70;;;;;;4190968;28;20037;-72
2022/03/03 00:50:17;;;;;;;25.20;8.10;;;-2.40;75.70;;;;;;4190879;28;20025;-72
2022/03/03 00:52:38;;;;;;;23.42;7.07;;;-2.40;75.70;;;;;;4169870;28;20097;-72
2022/03/03 00:55:00;;;;;;;21.00;6.93;;;-2.40;75.60;;;;;;4184269;28;20040;-72
2022/03/03 00:57:21;;;;;;;17.58;6.80;;;-2.40;75.60;;;;;;4186423;28;20437;-72
2022/03/03 00:59:42;;;;;;;21.40;6.03;;;-2.50;75.50;;;;;;4184649;28;20041;-72
2022/03/03 01:02:03;;;;;;;18.38;5.82;;;-2.40;75.60;;;;;;4187823;28;20173;-72
2022/03/03 01:04:24;;;;;;;14.98;5.65;;;-2.50;75.50;;;;;;4185224;28;20032;-72
2022/03/03 01:06:45;;;;;;;17.85;5.55;;;-2.50;75.60;;;;;;4185257;28;20029;-72
2022/03/03 01:09:06;;;;;;;17.25;4.95;;;-2.50;75.60;;;;;;4187201;28;20032;-72
2022/03/03 01:11:27;;;;;;;19.88;5.10;;;-2.50;75.60;;;;;;4189592;28;20029;-72
2022/03/03 01:13:47;;;;;;;19.77;5.63;;;-2.50;75.60;;;;;;4185556;28;20056;-72
2022/03/03 01:16:08;;;;;;;26.80;6.55;;;-2.50;75.60;;;;;;4181076;28;20123;-72
2022/03/03 01:18:29;;;;;;;16.23;5.65;;;-2.50;75.70;;;;;;4188796;28;20098;-72
2022/03/03 01:20:50;;;;;;;14.80;5.05;;;-2.60;75.70;;;;;;4190262;28;20051;-72
2022/03/03 01:23:11;;;;;;;18.13;5.80;;;-2.60;75.70;;;;;;4186135;28;20506;-72
2022/03/03 01:25:32;;;;;;;14.93;5.90;;;-2.60;75.80;;;;;;4171796;28;20641;-72
2022/03/03 01:27:53;;;;;;;18.58;5.03;;;-2.60;75.80;;;;;;4186810;28;20111;-72
2022/03/03 01:30:14;;;;;;;17.75;5.40;;;-2.70;75.90;;;;;;4183432;28;20478;-72
2022/03/03 01:32:34;;;;;;;19.30;5.78;;;-2.60;76.00;;;;;;4192027;28;20115;-72
2022/03/03 01:34:55;;;;;;;16.33;5.38;;;-2.60;76.30;;;;;;4186952;28;20540;-72
2022/03/03 01:37:16;;;;;;;14.95;5.40;;;-2.60;76.30;;;;;;4174807;28;20029;-72
2022/03/03 01:39:37;;;;;;;17.45;5.63;;;-2.60;76.40;;;;;;4188766;28;20043;-71
2022/03/03 01:41:58;;;;;;;20.17;5.05;;;-2.60;76.50;;;;;;4186395;28;20048;-72
2022/03/03 01:44:19;;;;;;;14.32;5.25;;;-2.60;76.60;;;;;;4190396;28;20029;-72
2022/03/03 01:46:50;;;;;;;16.90;5.13;;;-2.50;76.60;;;;;;4189759;28;20029;-71
2022/03/03 01:49:11;;;;;;;10.98;4.32;;;-2.50;76.70;;;;;;4190050;28;20029;-72
2022/03/03 01:51:32;;;;;;;12.60;4.75;;;-2.50;76.70;;;;;;4193589;28;20528;-72
2022/03/03 01:53:53;;;;;;;16.30;5.22;;;-2.40;76.80;;;;;;4176191;28;20104;-72
2022/03/03 01:56:14;;;;;;;14.60;5.22;;;-2.40;76.80;;;;;;4184818;28;20040;-72
2022/03/03 01:58:36;;;;;;;15.82;6.22;;;-2.30;76.90;;;;;;4185000;28;20374;-72
2022/03/03 02:00:57;;;;;;;18.85;6.75;;;-2.30;76.90;;;;;;4188662;28;20040;-72
2022/03/03 02:03:19;;;;;;;18.70;6.07;;;-2.30;77.60;;;;;;4170757;28;20678;-72
2022/03/03 02:05:39;;;;;;;16.98;5.30;;;-2.30;76.80;;;;;;4192382;28;20036;-72
2022/03/03 02:08:00;;;;;;;23.85;6.75;;;-2.30;76.80;;;;;;4185491;28;20033;-72
2022/03/03 02:10:21;;;;;;;24.58;5.80;;;-2.20;76.90;;;;;;4190557;28;20086;-72
2022/03/03 02:12:42;;;;;;;17.52;6.18;;;-2.20;76.90;;;;;;4168857;28;20037;-72
2022/03/03 02:15:04;;;;;;;22.63;5.93;;;-2.20;77.00;;;;;;4183367;28;20033;-72
2022/03/03 02:17:24;;;;;;;23.65;5.78;;;-2.20;76.90;;;;;;4184587;28;20115;-72
2022/03/03 02:19:45;;;;;;;18.75;6.10;;;-2.30;76.70;;;;;;4189771;28;20113;-72
2022/03/03 02:22:07;;;;;;;19.98;6.45;;;-2.30;76.70;;;;;;4191961;28;20045;-72
2022/03/03 02:24:28;;;;;;;18.98;5.72;;;-2.30;76.70;;;;;;4187791;28;20032;-72
2022/03/03 02:26:49;;;;;;;19.40;5.75;;;-2.30;76.70;;;;;;4187948;28;20025;-72
2022/03/03 02:29:10;;;;;;;24.20;6.18;;;-2.30;76.70;;;;;;4185413;28;20041;-72
2022/03/03 02:31:31;;;;;;;25.02;5.95;;;-2.40;76.50;;;;;;4180454;28;20037;-72
2022/03/03 02:33:52;;;;;;;27.98;6.53;;;-2.40;76.40;;;;;;4185196;28;20304;-72
2022/03/03 02:36:17;;;;;;;20.40;6.55;;;-2.40;76.40;;;;;;4181409;28;20437;-72
2022/03/03 02:38:38;;;;;;;25.75;6.85;;;-2.50;76.40;;;;;;4179827;28;20636;-72
2022/03/03 02:40:59;;;;;;;21.02;6.13;;;-2.50;76.70;;;;;;4184653;28;20048;-72
2022/03/03 02:43:21;;;;;;;16.67;6.38;;;-2.50;76.80;;;;;;4181695;28;20040;-72
2022/03/03 02:45:42;;;;;;;20.65;6.25;;;-2.50;76.80;;;;;;4189307;28;20040;-72
2022/03/03 02:48:03;;;;;;;22.73;7.05;;;-2.60;76.90;;;;;;4186912;28;20033;-72
2022/03/03 02:50:28;;;;;;;17.00;7.22;;;-2.60;77.00;;;;;;4183559;28;20033;-72
2022/03/03 02:52:49;;;;;;;17.88;7.40;;;-2.60;77.10;;;;;;4186322;28;20189;-72
2022/03/03 02:55:10;;;;;;;17.92;6.82;;;-2.60;77.10;;;;;;4183641;28;20065;-72
2022/03/03 03:00:11;;;;;;;17.30;6.85;;;-2.60;77.20;;;;;;4185922;28;20032;-72
2022/03/03 03:02:32;;;;;;;22.58;6.85;;;-2.60;77.20;;;;;;4185393;28;20048;-72
2022/03/03 03:04:52;;;;;;;15.20;6.05;;;-2.60;77.10;;;;;;4186149;28;20066;-72
2022/03/03 03:07:13;;;;;;;21.67;7.22;;;-2.60;77.10;;;;;;4186113;28;20143;-72
2022/03/03 03:09:34;;;;;;;21.00;7.30;;;-2.60;77.00;;;;;;4184348;28;20028;-72
2022/03/03 03:11:55;;;;;;;23.27;7.15;;;-2.70;77.00;;;;;;4181462;28;20033;-72
2022/03/03 03:14:16;;;;;;;21.35;6.80;;;-2.70;77.00;;;;;;4182657;28;20097;-72
2022/03/03 03:16:37;;;;;;;20.17;6.63;;;-2.70;77.00;;;;;;4181337;28;20521;-72
2022/03/03 03:18:58;;;;;;;21.85;7.10;;;-2.70;77.10;;;;;;4187180;28;20032;-72
2022/03/03 03:21:19;;;;;;;14.88;6.53;;;-2.70;77.30;;;;;;4180734;28;20048;-72
2022/03/03 03:23:40;;;;;;;17.15;6.85;;;-2.70;77.30;;;;;;4183943;28;20025;-73
2022/03/03 03:26:01;;;;;;;26.30;7.82;;;-2.70;77.30;;;;;;4186689;28;20477;-72
2022/03/03 03:28:22;;;;;;;16.15;6.90;;;-2.70;77.20;;;;;;4183336;28;20042;-72
2022/03/03 03:30:43;;;;;;;15.02;6.68;;;-2.70;77.10;;;;;;4184192;28;20032;-72
2022/03/03 03:33:05;;;;;;;20.17;7.78;;;-2.70;77.00;;;;;;4185837;28;20063;-72
2022/03/03 03:35:25;;;;;;;23.15;8.05;;;-2.70;77.00;;;;;;4187295;28;20502;-72
2022/03/03 03:37:46;;;;;;;31.00;9.15;;;-2.70;76.90;;;;;;4188470;28;20032;-71
2022/03/03 03:40:08;;;;;;;28.83;9.90;;;-2.70;77.20;;;;;;4181194;28;20072;-72
2022/03/03 03:42:29;;;;;;;24.60;9.35;;;-2.80;77.40;;;;;;4185424;28;20044;-72
2022/03/03 03:44:50;;;;;;;26.10;9.00;;;-2.80;77.60;;;;;;4186017;28;20422;-72
2022/03/03 03:47:12;;;;;;;29.95;10.00;;;-2.80;77.70;;;;;;4170536;28;20032;-72
2022/03/03 03:49:33;;;;;;;31.73;10.73;;;-2.80;77.80;;;;;;4186400;28;20032;-72
2022/03/03 03:51:54;;;;;;;54.28;11.20;;;-2.80;77.80;;;;;;4184713;28;20434;-72
2022/03/03 03:54:15;;;;;;;31.95;11.65;;;-2.70;78.00;;;;;;4182414;28;20051;-72
2022/03/03 03:56:36;;;;;;;33.38;10.57;;;-2.80;78.10;;;;;;4182962;28;20058;-72
2022/03/03 03:58:57;;;;;;;40.33;11.98;;;-2.70;78.40;;;;;;4186543;28;20237;-72
2022/03/03 04:01:18;;;;;;;36.22;11.32;;;-2.70;78.80;;;;;;4181905;28;20056;-72
2022/03/03 04:03:38;;;;;;;31.73;11.43;;;-2.70;79.30;;;;;;4186645;28;20037;-72
2022/03/03 04:05:59;;;;;;;27.60;10.68;;;-2.70;79.30;;;;;;4187609;28;20570;-72
2022/03/03 04:08:20;;;;;;;29.70;9.93;;;-2.70;79.30;;;;;;4186321;28;20048;-72
2022/03/03 04:10:42;;;;;;;32.25;10.18;;;-2.70;79.70;;;;;;4188418;28;20112;-72
2022/03/03 04:13:03;;;;;;;24.30;9.02;;;-2.60;79.20;;;;;;4181464;28;20087;-72
2022/03/03 04:15:24;;;;;;;37.58;10.38;;;-2.60;79.20;;;;;;4185548;28;20033;-72
2022/03/03 04:17:45;;;;;;;23.15;9.80;;;-2.60;79.40;;;;;;4192576;28;20115;-72
2022/03/03 04:20:06;;;;;;;33.22;10.73;;;-2.50;79.60;;;;;;4189020;28;20683;-72
2022/03/03 04:22:27;;;;;;;31.17;11.45;;;-2.50;79.70;;;;;;4193579;28;20082;-72
2022/03/03 04:24:48;;;;;;;23.52;10.23;;;-2.50;79.80;;;;;;4188942;28;20466;-72
2022/03/03 04:27:09;;;;;;;27.25;9.38;;;-2.40;79.80;;;;;;4186704;28;20063;-72
2022/03/03 04:29:30;;;;;;;33.92;10.68;;;-2.40;79.90;;;;;;4189421;28;20040;-72
2022/03/03 04:31:53;;;;;;;29.98;9.80;;;-2.40;79.90;;;;;;4185662;28;20409;-72
2022/03/03 04:34:14;;;;;;;25.67;9.85;;;-2.30;79.80;;;;;;4188418;28;20454;-73
2022/03/03 04:36:35;;;;;;;25.85;9.52;;;-2.30;79.70;;;;;;4189199;28;20032;-72
2022/03/03 04:38:56;;;;;;;27.65;10.70;;;-2.30;79.60;;;;;;4185902;28;20060;-72
2022/03/03 04:41:17;;;;;;;23.48;9.82;;;-2.20;79.50;;;;;;4186253;28;20048;-72
2022/03/03 04:43:38;;;;;;;23.65;9.43;;;-2.20;79.40;;;;;;4183333;28;20534;-72
2022/03/03 04:45:59;;;;;;;21.10;9.88;;;-2.20;79.40;;;;;;4189134;28;20033;-72
2022/03/03 04:48:21;;;;;;;21.83;9.45;;;-2.20;79.60;;;;;;4172513;28;20040;-73
2022/03/03 04:50:43;;;;;;;24.65;10.43;;;-2.20;79.20;;;;;;4185012;28;20068;-72
2022/03/03 04:53:03;;;;;;;26.58;10.18;;;-2.20;78.90;;;;;;4187383;28;20032;-72
2022/03/03 04:55:24;;;;;;;29.67;10.23;;;-2.20;78.70;;;;;;4187399;28;20064;-72
2022/03/03 04:57:45;;;;;;;26.95;10.35;;;-2.20;78.70;;;;;;4182359;28;20083;-72
2022/03/03 05:00:07;;;;;;;22.80;10.38;;;-2.10;78.90;;;;;;4188030;28;20641;-72
2022/03/03 05:02:28;;;;;;;31.70;10.23;;;-2.10;79.10;;;;;;4185008;28;20533;-72
2022/03/03 05:04:48;;;;;;;133.10;10.15;;;-2.00;79.40;;;;;;4185523;28;20369;-72
2022/03/03 05:07:09;;;;;;;91.00;9.10;;;-1.90;79.80;;;;;;4184641;28;20028;-72
2022/03/03 05:09:31;;;;;;;112.88;10.23;;;-1.80;80.30;;;;;;4183410;28;20025;-72
2022/03/03 05:11:52;;;;;;;185.80;11.40;;;-1.70;80.50;;;;;;4184764;28;20128;-72
2022/03/03 05:14:13;;;;;;;131.73;10.32;;;-1.60;80.70;;;;;;4186542;28;20024;-71
2022/03/03 05:16:34;;;;;;;139.38;9.98;;;-1.50;80.90;;;;;;4188910;28;20032;-72
2022/03/03 05:18:55;;;;;;;138.95;11.18;;;-1.40;81.70;;;;;;4187384;28;21497;-72
2022/03/03 05:21:16;;;;;;;131.05;15.15;;;-1.30;81.10;;;;;;4191702;28;20131;-72
2022/03/03 05:23:37;;;;;;;104.72;9.77;;;-1.20;81.10;;;;;;4190425;28;20528;-72
2022/03/03 05:25:57;;;;;;;115.32;12.77;;;-1.10;81.20;;;;;;4187998;28;20355;-72
2022/03/03 05:28:18;;;;;;;84.50;8.63;;;-1.10;81.20;;;;;;4184963;28;20032;-72
2022/03/03 05:30:39;;;;;;;67.28;7.90;;;-1.00;81.20;;;;;;4173183;28;20041;-72
2022/03/03 05:33:00;;;;;;;104.28;8.77;;;-0.90;81.30;;;;;;4181927;28;20228;-72
2022/03/03 05:35:21;;;;;;;78.50;7.82;;;-0.90;81.20;;;;;;4185248;28;20071;-72
2022/03/03 05:37:42;;;;;;;69.72;8.82;;;-0.80;81.30;;;;;;4178968;28;20028;-72
2022/03/03 05:40:03;;;;;;;31.10;6.65;;;-0.70;81.40;;;;;;4186901;28;20033;-72
2022/03/03 05:42:24;;;;;;;66.55;7.32;;;-0.70;81.50;;;;;;4181673;28;20047;-72
2022/03/03 05:44:49;;;;;;;18.35;7.15;;;-0.60;81.60;;;;;;4186339;28;20028;-72
2022/03/03 05:47:10;;;;;;;51.80;8.40;;;-0.60;81.60;;;;;;4188348;28;20048;-72
2022/03/03 05:49:31;;;;;;;55.92;7.35;;;-0.50;81.60;;;;;;4172883;28;20033;-72
2022/03/03 05:51:52;;;;;;;57.05;6.93;;;-0.50;81.60;;;;;;4175401;28;20038;-72
2022/03/03 05:54:12;;;;;;;39.40;7.57;;;-0.40;81.60;;;;;;4184172;28;20512;-72
2022/03/03 05:56:38;;;;;;;120.72;8.02;;;-0.40;81.60;;;;;;4183513;28;20037;-72
2022/03/03 05:59:02;;;;;;;64.50;7.90;;;-0.40;81.50;;;;;;4186916;28;20032;-72
2022/03/03 06:01:23;;;;;;;69.82;8.95;;;-0.30;81.60;;;;;;4181949;28;20272;-72
2022/03/03 06:03:47;;;;;;;60.15;8.80;;;-0.30;81.60;;;;;;4168768;28;20056;-72
2022/03/03 06:06:14;;;;;;;78.18;8.88;;;-0.30;81.50;;;;;;4195990;28;20046;-72
2022/03/03 06:08:41;;;;;;;83.07;10.32;;;-0.20;81.80;;;;;;4187405;28;20540;-72
2022/03/03 06:11:02;;;;;;;127.40;10.45;;;-0.10;82.20;;;;;;4186018;28;20058;-72
2022/03/03 06:13:30;;;;;;;61.92;8.57;;;0.00;82.40;;;;;;4189833;28;20025;-72
2022/03/03 06:15:51;;;;;;;45.25;7.65;;;0.00;82.40;;;;;;4185274;28;20044;-72
2022/03/03 06:18:12;;;;;;;87.93;9.73;;;0.10;82.40;;;;;;4185648;28;20497;-72
2022/03/03 06:20:34;;;;;;;66.72;8.90;;;0.10;82.30;;;;;;4184616;28;20060;-72
2022/03/03 06:22:55;;;;;;;55.42;8.57;;;0.20;82.30;;;;;;4185153;28;20543;-72
2022/03/03 06:25:15;;;;;;;94.80;9.85;;;0.30;82.20;;;;;;4183938;28;20036;-72
2022/03/03 06:27:36;;;;;;;56.15;8.95;;;0.30;82.10;;;;;;4182386;28;20040;-72
2022/03/03 06:29:57;;;;;;;93.05;10.82;;;0.40;82.00;;;;;;4184912;28;20041;-72
2022/03/03 06:32:18;;;;;;;126.13;10.32;;;0.40;82.00;;;;;;4167816;28;20043;-72
2022/03/03 06:34:39;;;;;;;94.40;10.18;;;0.50;81.90;;;;;;4182805;28;20082;-72
2022/03/03 06:37:00;;;;;;;59.20;9.20;;;0.50;81.70;;;;;;4172193;28;20068;-72
2022/03/03 06:39:21;;;;;;;54.03;8.43;;;0.50;81.70;;;;;;4176458;28;20032;-72
2022/03/03 06:41:42;;;;;;;87.90;8.77;;;0.60;81.70;;;;;;4181423;28;20111;-72
2022/03/03 06:44:03;;;;;;;63.53;9.15;;;0.60;81.60;;;;;;4183021;28;20068;-72
2022/03/03 06:46:24;;;;;;;50.45;8.73;;;0.60;81.60;;;;;;4183327;28;20402;-72
2022/03/03 06:48:45;;;;;;;32.95;7.88;;;0.70;81.60;;;;;;4181434;28;20082;-72
2022/03/03 06:51:06;;;;;;;57.25;8.38;;;0.70;81.50;;;;;;4184117;28;20090;-72
2022/03/03 06:53:29;;;;;;;60.70;9.40;;;0.80;81.60;;;;;;4180609;28;20033;-73
2022/03/03 06:55:50;;;;;;;103.13;9.80;;;0.70;81.30;;;;;;4182489;28;20461;-73
2022/03/03 06:58:11;;;;;;;152.57;10.52;;;0.80;81.30;;;;;;4166547;28;20033;-73
2022/03/03 07:00:34;;;;;;;180.07;13.15;;;0.80;81.20;;;;;;4166788;28;20106;-73
2022/03/03 07:02:54;;;;;;;143.80;11.40;;;0.80;81.00;;;;;;4182598;28;20040;-73
2022/03/03 07:05:15;;;;;;;170.82;11.90;;;0.80;81.00;;;;;;4184843;28;20673;-73
2022/03/03 07:07:36;;;;;;;149.68;10.77;;;0.80;81.20;;;;;;4186047;28;20086;-73
2022/03/03 07:09:57;;;;;;;121.65;10.65;;;0.80;81.20;;;;;;4184089;28;20071;-73
2022/03/03 07:12:18;;;;;;;81.80;8.30;;;0.80;81.20;;;;;;4185386;28;20025;-72
2022/03/03 07:14:39;;;;;;;94.93;8.20;;;0.80;81.20;;;;;;4185767;28;20076;-72
2022/03/03 07:17:10;;;;;;;74.57;8.63;;;0.80;81.30;;;;;;4186073;28;20099;-72
2022/03/03 07:20:04;;;;;;;156.18;11.23;;;0.90;81.40;;;;;;4172862;28;20564;-72
2022/03/03 07:22:34;;;;;;;94.78;7.28;;;0.90;81.40;;;;;;4187472;28;20530;-72
2022/03/03 07:25:00;;;;;;;118.90;8.45;;;0.90;81.40;;;;;;4188114;28;20162;-72
2022/03/03 07:27:23;;;;;;;60.10;6.85;;;0.90;81.40;;;;;;4186292;28;20093;-72
2022/03/03 07:29:44;;;;;;;106.53;8.82;;;1.00;81.50;;;;;;4188903;28;20048;-72
2022/03/03 07:32:06;;;;;;;112.93;9.30;;;1.00;81.60;;;;;;4187273;28;20064;-72
2022/03/03 07:34:33;;;;;;;95.60;8.40;;;1.00;81.60;;;;;;4186827;28;20043;-72
2022/03/03 07:36:56;;;;;;;170.18;10.05;;;1.00;81.60;;;;;;4186406;28;20440;-72
2022/03/03 07:39:17;;;;;;;115.05;8.25;;;1.10;81.70;;;;;;4185595;28;20429;-73
2022/03/03 07:41:38;;;;;;;100.78;8.43;;;1.10;81.70;;;;;;4172409;28;20403;-72
2022/03/03 07:43:59;;;;;;;136.15;8.20;;;1.10;81.70;;;;;;4182157;28;20033;-72
2022/03/03 07:46:21;;;;;;;149.13;10.07;;;1.10;81.70;;;;;;4183242;28;20503;-73
2022/03/03 07:48:43;;;;;;;138.00;8.23;;;1.20;81.80;;;;;;4172743;28;20029;-73
2022/03/03 07:51:04;;;;;;;114.45;7.78;;;1.20;81.70;;;;;;4183089;28;20444;-72
2022/03/03 07:53:25;;;;;;;108.78;6.53;;;1.20;81.60;;;;;;4190049;28;20111;-72
2022/03/03 07:55:48;;;;;;;82.97;5.65;;;1.20;81.80;;;;;;4186025;28;20501;-73
2022/03/03 07:58:17;;;;;;;87.70;6.95;;;1.20;81.80;;;;;;4188552;28;20032;-73
2022/03/03 08:00:43;;;;;;;76.35;6.60;;;1.30;81.90;;;;;;4173559;28;20037;-72
2022/03/03 08:03:05;;;;;;;66.22;6.10;;;1.30;81.80;;;;;;4187175;28;20029;-73
2022/03/03 08:05:29;;;;;;;69.15;6.28;;;1.30;81.80;;;;;;4172704;28;20510;-72
2022/03/03 08:07:52;;;;;;;46.17;5.50;;;1.30;81.70;;;;;;4187859;28;20040;-72
2022/03/03 08:10:15;;;;;;;56.63;5.15;;;1.30;81.50;;;;;;4173173;28;20041;-72
2022/03/03 08:12:37;;;;;;;53.85;6.32;;;1.30;81.40;;;;;;4184728;28;20044;-72
2022/03/03 08:14:58;;;;;;;31.88;5.30;;;1.30;81.20;;;;;;4174579;28;20091;-72
2022/03/03 08:17:19;;;;;;;52.03;5.75;;;1.30;81.10;;;;;;4187464;28;20045;-72
2022/03/03 08:19:42;;;;;;;66.60;6.72;;;1.20;81.10;;;;;;4188338;28;20053;-72
2022/03/03 08:22:03;;;;;;;27.13;5.32;;;1.30;81.10;;;;;;4173998;28;20135;-72
2022/03/03 08:24:24;;;;;;;42.15;5.22;;;1.20;81.10;;;;;;4189997;28;20056;-72
2022/03/03 08:26:45;;;;;;;25.73;5.15;;;1.20;81.20;;;;;;4187521;28;20486;-72
2022/03/03 08:29:06;;;;;;;21.40;5.40;;;1.20;81.10;;;;;;4187728;28;20618;-72
2022/03/03 08:31:38;;;;;;;50.50;6.18;;;1.20;81.20;;;;;;4186284;28;20079;-72
2022/03/03 08:34:09;;;;;;;63.50;5.63;;;1.10;81.30;;;;;;4176741;28;21612;-72
2022/03/03 08:36:45;;;;;;;32.35;5.72;;;1.10;81.40;;;;;;4185316;28;20130;-72
2022/03/03 08:39:07;;;;;;;17.73;4.70;;;1.20;81.70;;;;;;4170432;28;20043;-72
2022/03/03 08:41:27;;;;;;;16.48;4.70;;;1.20;81.80;;;;;;4185101;28;20044;-72
2022/03/03 08:43:52;;;;;;;12.82;5.10;;;1.20;81.90;;;;;;4184752;28;20036;-72
2022/03/03 08:46:13;;;;;;;14.15;5.18;;;1.30;81.80;;;;;;4172028;28;20169;-72
2022/03/03 08:48:34;;;;;;;63.20;6.53;;;1.30;81.70;;;;;;4170954;28;20029;-72
2022/03/03 08:50:55;;;;;;;55.47;6.07;;;1.30;81.60;;;;;;4185127;28;20501;-72
2022/03/03 08:53:16;;;;;;;17.35;5.03;;;1.30;81.70;;;;;;4167339;28;20029;-73
2022/03/03 08:55:37;;;;;;;24.58;5.07;;;1.30;81.90;;;;;;4183588;28;20144;-72
2022/03/03 08:57:59;;;;;;;15.85;5.28;;;1.40;82.10;;;;;;4184811;28;20024;-72
2022/03/03 09:00:20;;;;;;;26.55;5.55;;;1.40;82.30;;;;;;4189761;28;20119;-72
2022/03/03 09:02:40;;;;;;;29.98;5.35;;;1.50;82.30;;;;;;4184443;28;20040;-72
2022/03/03 09:05:04;;;;;;;33.22;5.35;;;1.50;82.10;;;;;;4185726;28;20135;-72
2022/03/03 09:07:25;;;;;;;;;;;1.50;82.10;;;;;;4185198;28;20041;-72
2022/03/03 09:09:46;;;;;;;63.83;6.35;;;1.50;82.10;;;;;;4191799;28;19931;-73
2022/03/03 09:12:08;;;;;;;29.23;5.72;;;1.60;81.90;;;;;;4190798;28;20044;-72
2022/03/03 09:14:29;;;;;;;56.70;6.72;;;1.60;81.80;;;;;;4186083;28;20055;-72
2022/03/03 09:16:50;;;;;;;30.70;5.75;;;1.60;81.80;;;;;;4185970;28;20477;-72
2022/03/03 09:19:11;;;;;;;24.80;5.45;;;1.60;81.80;;;;;;4176956;28;20040;-72
2022/03/03 09:21:32;;;;;;;35.03;6.82;;;1.60;81.70;;;;;;4190730;28;20523;-72
2022/03/03 09:23:53;;;;;;;10.85;5.38;;;1.70;81.80;;;;;;4187612;28;20121;-72
2022/03/03 09:26:14;;;;;;;14.30;5.35;;;1.70;81.90;;;;;;4187380;28;20032;-72
2022/03/03 09:28:35;;;;;;;41.72;6.00;;;1.70;82.00;;;;;;4186316;28;20028;-72
2022/03/03 09:30:56;;;;;;;12.32;4.57;;;1.70;82.00;;;;;;4172824;28;20029;-72
2022/03/03 09:33:20;;;;;;;20.52;5.22;;;1.80;82.00;;;;;;4185974;28;20031;-72
2022/03/03 09:35:41;;;;;;;;;;;1.80;82.10;;;;;;4190022;28;20218;-73
2022/03/03 09:38:02;;;;;;;22.80;4.95;;;1.80;82.20;;;;;;4185325;28;20357;-72
2022/03/03 09:40:23;;;;;;;14.10;4.80;;;1.90;82.00;;;;;;4183023;28;20120;-72
2022/03/03 09:43:05;;;;;;;34.83;6.70;;;1.90;81.90;;;;;;4185550;28;20086;-72
2022/03/03 09:45:26;;;;;;;13.85;5.85;;;1.90;81.60;;;;;;4186996;28;20074;-72
2022/03/03 09:47:47;;;;;;;30.45;5.93;;;1.90;81.60;;;;;;4186347;28;20098;-71
2022/03/03 09:50:08;;;;;;;29.02;6.40;;;2.00;81.60;;;;;;4181834;28;20036;-72
2022/03/03 09:52:31;;;;;;;20.52;6.20;;;2.00;81.40;;;;;;4184983;28;20024;-72
2022/03/03 09:54:54;;;;;;;13.25;5.82;;;2.00;81.40;;;;;;4179673;28;20043;-72
2022/03/03 09:57:15;;;;;;;10.93;5.15;;;1.90;81.50;;;;;;4185209;28;20098;-72
2022/03/03 09:59:43;;;;;;;17.67;6.03;;;2.00;81.80;;;;;;4185097;28;20039;-72
2022/03/03 10:02:05;;;;;;;12.55;5.20;;;2.10;82.00;;;;;;4183856;28;20097;-72
2022/03/03 10:04:26;;;;;;;13.93;5.97;;;2.10;82.10;;;;;;4170794;28;20036;-72
2022/03/03 10:06:47;;;;;;;26.45;5.82;;;2.20;82.20;;;;;;4183914;28;20487;-72
2022/03/03 10:09:08;;;;;;;16.98;5.78;;;2.20;82.20;;;;;;4185457;28;20033;-72
2022/03/03 10:11:29;;;;;;;15.57;5.82;;;2.30;82.10;;;;;;4178531;28;20715;-72
2022/03/03 10:13:52;;;;;;;15.48;5.95;;;2.40;82.10;;;;;;4181803;28;20029;-72
2022/03/03 10:16:18;;;;;;;15.43;5.93;;;2.40;82.20;;;;;;4180355;28;20041;-72
2022/03/03 10:18:39;;;;;;;14.32;6.80;;;2.50;82.30;;;;;;4184717;28;20486;-72
2022/03/03 10:21:02;;;;;;;13.35;5.57;;;2.60;82.40;;;;;;4185314;28;20051;-72
2022/03/03 10:23:31;;;;;;;14.05;6.43;;;2.70;82.50;;;;;;4186343;28;20107;-72
2022/03/03 10:25:53;;;;;;;10.48;5.95;;;2.70;82.20;;;;;;4180730;28;20040;-72
2022/03/03 10:28:16;;;;;;;13.10;6.30;;;2.80;82.10;;;;;;4168191;28;20035;-72
2022/03/03 10:30:50;;;;;;;11.60;6.07;;;2.80;81.90;;;;;;4182537;28;20082;-73
2022/03/03 10:33:16;;;;;;;24.77;6.55;;;2.90;81.80;;;;;;4186006;28;20048;-72
2022/03/03 10:35:36;;;;;;;17.63;6.85;;;2.90;81.80;;;;;;4181113;28;20036;-73
2022/03/03 10:38:03;;;;;;;10.30;5.57;;;3.00;81.90;;;;;;4179805;28;20064;-72
2022/03/03 10:40:24;;;;;;;12.25;5.85;;;3.00;81.80;;;;;;4184204;28;20044;-72
2022/03/03 10:42:47;;;;;;;14.30;6.85;;;3.10;81.80;;;;;;4184342;28;20029;-72
2022/03/03 10:45:15;;;;;;;14.68;6.72;;;3.10;81.60;;;;;;4189311;28;20040;-72
2022/03/03 10:47:36;;;;;;;14.93;6.75;;;3.20;81.60;;;;;;4183842;28;20073;-72
2022/03/03 10:49:59;;;;;;;15.35;6.80;;;3.20;81.20;;;;;;4188989;28;20402;-72
2022/03/03 10:52:44;;;;;;;12.50;6.53;;;3.20;80.70;;;;;;4189274;28;20225;-73
2022/03/03 10:55:12;;;;;;;15.27;6.85;;;3.20;80.50;;;;;;4186560;28;20079;-72
2022/03/03 10:57:52;;;;;;;12.73;6.38;;;3.20;80.30;;;;;;4181538;28;20181;-72
2022/03/03 11:00:14;;;;;;;13.10;7.10;;;3.20;80.10;;;;;;4188180;28;20037;-72
2022/03/03 11:02:37;;;;;;;14.98;7.40;;;3.30;80.00;;;;;;4187894;28;20144;-72
2022/03/03 11:04:58;;;;;;;13.85;6.38;;;3.20;79.80;;;;;;4181219;28;20039;-72
2022/03/03 11:07:20;;;;;;;14.98;6.38;;;3.30;80.00;;;;;;4180838;28;20123;-72
2022/03/03 11:09:42;;;;;;;10.60;5.80;;;3.30;80.30;;;;;;4185549;28;20033;-72
2022/03/03 11:12:06;;;;;;;17.25;7.07;;;3.30;80.40;;;;;;4181587;28;20092;-72
2022/03/03 11:14:27;;;;;;;13.93;6.35;;;3.40;80.30;;;;;;4188943;28;20035;-72
2022/03/03 11:16:47;;;;;;;11.93;6.50;;;3.40;79.90;;;;;;4180053;28;20122;-72
2022/03/03 11:19:10;;;;;;;11.90;6.25;;;3.40;79.70;;;;;;4170058;28;20036;-72
2022/03/03 11:21:31;;;;;;;11.18;6.38;;;3.40;79.50;;;;;;4183268;28;20043;-72
2022/03/03 11:23:53;;;;;;;14.27;7.38;;;3.40;79.60;;;;;;4188663;28;20029;-72
2022/03/03 11:26:23;;;;;;;11.88;6.18;;;3.50;79.80;;;;;;4189680;28;20393;-72
2022/03/03 11:28:45;;;;;;;12.80;6.72;;;3.50;79.80;;;;;;4178127;28;20067;-72
2022/03/03 11:31:28;;;;;;;11.18;6.40;;;3.60;80.00;;;;;;4173171;28;20040;-72
2022/03/03 11:33:49;;;;;;;14.48;6.88;;;3.60;79.60;;;;;;4183874;28;20858;-72
2022/03/03 11:36:18;;;;;;;10.48;6.30;;;3.60;79.50;;;;;;4170482;28;20509;-72
2022/03/03 11:38:51;;;;;;;12.00;5.93;;;3.60;79.40;;;;;;4183157;28;20068;-72
2022/03/03 11:41:12;;;;;;;12.90;6.10;;;3.70;79.30;;;;;;4183350;28;20441;-72
2022/03/03 11:43:48;;;;;;;13.43;6.43;;;3.70;79.30;;;;;;4181177;28;20037;-72
2022/03/03 11:46:09;;;;;;;15.45;6.75;;;3.80;79.10;;;;;;4180210;28;20029;-72
2022/03/03 11:48:37;;;;;;;12.30;6.18;;;3.80;79.10;;;;;;4184648;28;20052;-72
2022/03/03 11:50:58;;;;;;;12.77;6.60;;;3.80;79.10;;;;;;4169002;28;20043;-72
2022/03/03 11:53:24;;;;;;;11.27;6.20;;;3.80;79.10;;;;;;4178309;28;20028;-72
2022/03/03 11:55:55;;;;;;;12.32;6.47;;;3.90;79.10;;;;;;4169777;28;20044;-72
2022/03/03 11:58:24;;;;;;;13.30;7.43;;;3.90;79.00;;;;;;4180428;28;20058;-72
2022/03/03 12:01:08;;;;;;;11.90;6.32;;;4.00;78.90;;;;;;4181160;28;20037;-72
2022/03/03 12:03:29;;;;;;;15.82;7.20;;;4.00;78.60;;;;;;4183462;28;20123;-73
2022/03/03 12:06:09;;;;;;;14.35;7.25;;;4.00;78.00;;;;;;4183158;28;20127;-72
2022/03/03 12:08:34;;;;;;;11.95;6.45;;;4.00;77.50;;;;;;4184809;28;20119;-72
2022/03/03 12:11:22;;;;;;;13.13;7.05;;;4.00;77.50;;;;;;4184898;28;20049;-72
2022/03/03 12:13:47;;;;;;;16.27;7.45;;;4.00;77.40;;;;;;4182006;28;20083;-72
2022/03/03 12:16:23;;;;;;;14.60;6.50;;;4.00;77.20;;;;;;4180718;28;20471;-72
2022/03/03 12:18:58;;;;;;;14.43;6.85;;;3.90;77.00;;;;;;4184002;28;20189;-72